Impacts TAF Board INFO
FOR SITUATIONAL AWARENESS. NOT TO BE USED FOR FLIGHT PLANNING PURPOSES.
IDs:

KHDC - Hammond/Northshore R, LA, US

Issued at 1138 UTC 18 Jan 2018
Updated at 1733 UTC 18 Jan 2018
Potential Impact None Slight Moderate High
Time1715Z 18/18Z 18/19Z 18/20Z 18/21Z 18/22Z 18/23Z 19/00Z 19/01Z 19/02Z 19/03Z 19/04Z 19/05Z 19/06Z>>
Type OBS PRVL PRVL PRVL PRVL PRVL PRVL PRVL PRVL PRVL PRVL PRVL PRVL PRVL
VIS 10 >6 >6 >6 >6 >6 >6 >6 >6 >6 >6 >6 >6 >6
CIG -- -- -- -- -- -- -- -- -- -- -- -- -- --
Cover CLR SKC SKC SKC SKC SKC SKC SKC SKC SKC SKC SKC SKC SKC
FltCat VFR VFR VFR VFR VFR VFR VFR VFR VFR VFR VFR VFR VFR VFR
WX -- -- -- -- -- -- -- -- -- -- -- -- -- --
WDir 20 20 20 20 20 20 20 20 20 20 20 20 20 20
WSpd 4 4 4 4 4 4 4 4 4 4 4 4 4 4
WGst -- -- -- -- -- -- -- -- -- -- -- -- -- --

Raw TAF
KHDC 181138Z 1812/1912 02004KT P6SM SKC

Raw METAR
KHDC 181715Z AUTO 02004KT 10SM CLR 01/M09 A3059 RMK AO2
KHDC 181655Z AUTO 01005KT 10SM CLR 01/M09 A3059 RMK AO2
KHDC 181635Z AUTO 00000KT 10SM CLR 00/M10 A3061 RMK AO2
KHDC 181615Z AUTO 02003KT 10SM CLR 00/M08 A3062 RMK AO2
KHDC 181555Z AUTO 02007KT 10SM CLR M01/M09 A3062 RMK AO2
KHDC 181535Z AUTO 02004KT 10SM CLR M02/M09 A3062 RMK AO2
KHDC 181515Z AUTO 01005KT 10SM CLR M03/M09 A3062 RMK AO2
KHDC 181455Z AUTO 02004KT 10SM CLR M04/M09 A3061 RMK AO2
KHDC 181435Z AUTO 02004KT 10SM CLR M05/M09 A3060 RMK AO2

METAR Board
Radar Display
Forecast Discussion

FOR SITUATIONAL AWARENESS. NOT TO BE USED FOR FLIGHT PLANNING PURPOSES.